Time;durP1;ratioP1;P1;durP2;ratioP2;P2;SDS_P1;SDS_P2;PMS_P1;PMS_P2;Temp;Humidity;BMP_temperature;BMP_pressure;BME280_temperature;BME280_humidity;BME280_pressure;Samples;Min_cycle;Max_cycle;Signal;HPM_P1;HPM_P2
2023/04/30 00:01:30;;;;;;;5.85;5.32;;;12.00;99.90;;;;;;5065819;28;20183;-80
2023/04/30 00:03:55;;;;;;;4.80;4.35;;;12.00;99.90;;;;;;5062998;28;20255;-79
2023/04/30 00:06:21;;;;;;;4.68;4.38;;;12.00;99.90;;;;;;5067577;28;20191;-79
2023/04/30 00:08:47;;;;;;;5.70;5.20;;;12.00;99.90;;;;;;5064900;28;20211;-80
2023/04/30 00:11:13;;;;;;;5.97;5.47;;;12.00;99.90;;;;;;5066896;28;20168;-80
2023/04/30 00:13:54;;;;;;;5.50;5.10;;;11.90;99.90;;;;;;5081293;28;20247;-80
2023/04/30 00:16:19;;;;;;;4.90;4.50;;;11.80;99.90;;;;;;5066064;28;20273;-79
2023/04/30 00:18:45;;;;;;;5.43;4.88;;;11.80;99.90;;;;;;5056129;28;20643;-81
2023/04/30 00:21:18;;;;;;;5.05;4.65;;;11.80;99.90;;;;;;5063005;28;20271;-82
2023/04/30 00:23:53;;;;;;;5.10;4.72;;;11.80;99.90;;;;;;5073610;28;20832;-79
2023/04/30 00:26:19;;;;;;;4.82;4.53;;;11.80;99.90;;;;;;5059565;28;20211;-80
2023/04/30 00:28:45;;;;;;;6.82;4.30;;;11.80;99.90;;;;;;5076892;28;20182;-80
2023/04/30 00:31:10;;;;;;;4.47;4.07;;;11.80;99.90;;;;;;5062428;28;20198;-79
2023/04/30 00:33:36;;;;;;;4.93;4.63;;;11.70;99.90;;;;;;5062901;28;20231;-80
2023/04/30 00:36:11;;;;;;;4.93;4.32;;;11.70;99.90;;;;;;5060587;28;20686;-79
2023/04/30 00:38:36;;;;;;;5.40;4.78;;;11.70;99.90;;;;;;5059070;28;20191;-79
2023/04/30 00:41:05;;;;;;;5.18;4.68;;;11.70;99.90;;;;;;5054074;28;20544;-79
2023/04/30 00:43:31;;;;;;;5.07;4.57;;;11.70;99.90;;;;;;5051616;28;20226;-81
2023/04/30 00:45:57;;;;;;;4.90;4.60;;;11.70;99.90;;;;;;5052636;28;20554;-79
2023/04/30 00:48:25;;;;;;;4.57;4.28;;;11.70;99.90;;;;;;5048913;28;20615;-80
2023/04/30 00:50:50;;;;;;;4.72;4.40;;;11.70;99.90;;;;;;5061319;28;20187;-78
2023/04/30 00:53:16;;;;;;;4.88;4.57;;;11.60;99.90;;;;;;5068139;28;20183;-78
2023/04/30 00:55:46;;;;;;;4.72;4.32;;;11.60;99.90;;;;;;5062548;28;20183;-78
2023/04/30 00:58:21;;;;;;;4.80;4.45;;;11.60;99.90;;;;;;5060895;28;20549;-79
2023/04/30 01:00:47;;;;;;;4.90;4.60;;;11.60;99.90;;;;;;5081040;28;20690;-78
2023/04/30 01:03:13;;;;;;;4.68;4.38;;;11.60;99.90;;;;;;5061448;28;20180;-79
2023/04/30 01:05:41;;;;;;;4.75;4.45;;;11.60;99.90;;;;;;5070825;28;20176;-80
2023/04/30 01:08:09;;;;;;;4.95;4.60;;;11.60;99.90;;;;;;5084915;28;20180;-84
2023/04/30 01:10:41;;;;;;;4.93;4.30;;;11.50;99.90;;;;;;5067115;28;20622;-81
2023/04/30 01:13:55;;;;;;;5.05;4.57;;;11.60;99.90;;;;;;5072072;28;20179;-82
2023/04/30 01:16:32;;;;;;;5.00;4.60;;;11.50;99.90;;;;;;5060922;28;20207;-81
2023/04/30 01:19:02;;;;;;;4.90;4.50;;;11.50;99.90;;;;;;5078048;28;20242;-82
2023/04/30 01:21:32;;;;;;;5.28;4.90;;;11.50;99.90;;;;;;5065681;28;20184;-80
2023/04/30 01:24:22;;;;;;;5.32;4.93;;;11.50;99.90;;;;;;5063416;28;20208;-81
2023/04/30 01:27:00;;;;;;;5.30;4.90;;;11.50;99.90;;;;;;5063636;28;20733;-79
2023/04/30 01:29:26;;;;;;;5.00;4.60;;;11.50;99.90;;;;;;5070514;28;20171;-79
2023/04/30 01:31:52;;;;;;;5.30;4.90;;;11.40;99.90;;;;;;5063386;28;20176;-79
2023/04/30 01:34:18;;;;;;;5.43;4.93;;;11.40;99.90;;;;;;5066191;28;20199;-81
2023/04/30 01:36:56;;;;;;;5.05;4.65;;;11.50;99.90;;;;;;5069527;28;20682;-80
2023/04/30 01:39:40;;;;;;;4.80;4.50;;;11.40;99.90;;;;;;5064084;28;20262;-81
2023/04/30 01:42:22;;;;;;;6.38;4.55;;;11.50;99.90;;;;;;5081248;28;20179;-81
2023/04/30 01:45:35;;;;;;;4.75;4.45;;;11.50;99.90;;;;;;5065256;28;20207;-80
2023/04/30 01:48:09;;;;;;;5.43;5.03;;;11.50;99.90;;;;;;5065324;28;20180;-81
2023/04/30 01:50:57;;;;;;;5.95;5.22;;;11.40;99.90;;;;;;5059912;28;20673;-79
2023/04/30 01:53:40;;;;;;;6.55;5.07;;;11.40;99.90;;;;;;5063987;28;20164;-79
2023/04/30 01:56:29;;;;;;;5.60;5.20;;;11.40;99.90;;;;;;5076725;28;20232;-81
2023/04/30 01:58:58;;;;;;;4.82;4.47;;;11.40;99.90;;;;;;5062362;28;20626;-82
2023/04/30 02:01:26;;;;;;;5.30;4.93;;;11.40;99.90;;;;;;5065881;28;20187;-80
2023/04/30 02:03:51;;;;;;;4.78;4.47;;;11.40;99.90;;;;;;5076175;28;20204;-79
2023/04/30 02:06:17;;;;;;;5.03;4.72;;;11.40;99.90;;;;;;5062008;28;20206;-79
2023/04/30 02:08:43;;;;;;;5.47;5.07;;;11.30;99.90;;;;;;5057463;28;20435;-80
2023/04/30 02:11:18;;;;;;;6.00;5.43;;;11.40;99.90;;;;;;5063709;28;20183;-77
2023/04/30 02:13:43;;;;;;;5.45;5.05;;;11.30;99.90;;;;;;5056515;28;20475;-78
2023/04/30 02:16:09;;;;;;;5.85;5.25;;;11.30;99.90;;;;;;5054552;28;20195;-78
2023/04/30 02:18:35;;;;;;;5.35;4.85;;;11.30;99.90;;;;;;5049624;28;20571;-79
2023/04/30 02:21:00;;;;;;;5.75;5.30;;;11.30;99.90;;;;;;5052600;28;20204;-79
2023/04/30 02:23:26;;;;;;;6.22;5.63;;;11.30;99.90;;;;;;5057246;28;20207;-79
2023/04/30 02:25:51;;;;;;;6.05;5.60;;;11.20;99.90;;;;;;5051609;28;20177;-79
2023/04/30 02:28:17;;;;;;;6.10;5.53;;;11.20;99.90;;;;;;5055591;28;20556;-80
2023/04/30 02:30:42;;;;;;;5.93;5.43;;;11.20;99.90;;;;;;5056061;28;20171;-80
2023/04/30 02:33:11;;;;;;;5.63;5.22;;;11.10;99.90;;;;;;5054425;28;20237;-79
2023/04/30 02:35:37;;;;;;;6.45;5.13;;;11.10;99.90;;;;;;5056154;28;20199;-79
2023/04/30 02:38:03;;;;;;;7.75;5.85;;;11.10;99.90;;;;;;5051610;28;20172;-79
2023/04/30 02:40:28;;;;;;;6.45;5.95;;;11.10;99.90;;;;;;5054151;28;20211;-79
2023/04/30 02:42:55;;;;;;;5.70;5.30;;;11.10;99.90;;;;;;5049276;28;20211;-79
2023/04/30 02:45:21;;;;;;;6.15;5.65;;;11.10;99.90;;;;;;5060522;28;20617;-81
2023/04/30 02:47:47;;;;;;;6.28;5.88;;;11.10;99.90;;;;;;5079048;28;20215;-81
2023/04/30 02:50:13;;;;;;;6.47;5.30;;;11.10;99.90;;;;;;5076648;28;20596;-81
2023/04/30 02:52:39;;;;;;;6.47;5.95;;;11.10;99.90;;;;;;5077052;28;20270;-80
2023/04/30 02:55:05;;;;;;;6.60;5.88;;;11.00;99.90;;;;;;5057832;28;20194;-81
2023/04/30 02:57:31;;;;;;;6.88;6.28;;;11.10;99.90;;;;;;5062053;28;20209;-80
2023/04/30 02:59:57;;;;;;;5.80;5.30;;;11.10;99.90;;;;;;5061993;28;20176;-80
2023/04/30 03:02:22;;;;;;;6.85;5.93;;;11.10;99.90;;;;;;5063409;28;20175;-80
2023/04/30 03:04:49;;;;;;;6.18;5.55;;;11.10;99.90;;;;;;5079419;28;20203;-80
2023/04/30 03:07:14;;;;;;;14.75;13.45;;;11.00;99.90;;;;;;5080609;28;20200;-81
2023/04/30 03:09:40;;;;;;;9.40;8.50;;;11.00;99.90;;;;;;5077296;28;20207;-81
2023/04/30 03:12:06;;;;;;;6.97;6.38;;;11.00;99.90;;;;;;5063978;28;20285;-82
2023/04/30 03:14:31;;;;;;;7.25;6.65;;;11.00;99.90;;;;;;5063371;28;20194;-81
2023/04/30 03:16:57;;;;;;;6.88;6.28;;;11.00;99.90;;;;;;5064342;28;20208;-81
2023/04/30 03:19:24;;;;;;;6.95;6.40;;;11.00;99.90;;;;;;5063522;28;20522;-80
2023/04/30 03:21:52;;;;;;;6.90;6.18;;;11.00;99.90;;;;;;5068523;28;20191;-80
2023/04/30 03:24:18;;;;;;;7.30;6.60;;;11.00;99.90;;;;;;5058367;28;20192;-79
2023/04/30 03:26:44;;;;;;;7.43;6.72;;;11.00;99.90;;;;;;5055259;28;20203;-79
2023/04/30 03:29:10;;;;;;;6.90;6.28;;;11.00;99.90;;;;;;5049204;28;20207;-78
2023/04/30 03:31:36;;;;;;;7.32;6.72;;;11.00;99.90;;;;;;5053774;28;20211;-79
2023/04/30 03:34:01;;;;;;;7.35;5.97;;;11.00;99.90;;;;;;5062101;28;20184;-78
2023/04/30 03:36:27;;;;;;;7.10;6.40;;;11.00;99.90;;;;;;5050618;28;20560;-78
2023/04/30 03:38:53;;;;;;;7.25;6.65;;;11.00;99.90;;;;;;5062347;28;20207;-79
2023/04/30 03:41:19;;;;;;;8.00;7.40;;;11.00;99.90;;;;;;5060931;28;20278;-79
2023/04/30 03:43:45;;;;;;;8.15;7.20;;;11.00;99.90;;;;;;5061307;28;20682;-80
2023/04/30 03:46:10;;;;;;;7.40;6.80;;;11.00;99.90;;;;;;5062304;28;20287;-80
2023/04/30 03:48:36;;;;;;;8.23;7.57;;;11.00;99.90;;;;;;5059644;28;20176;-80
2023/04/30 03:51:01;;;;;;;7.82;7.20;;;10.90;99.90;;;;;;5059227;28;20216;-80
2023/04/30 03:53:27;;;;;;;7.80;7.07;;;10.90;99.90;;;;;;5066957;28;20552;-81
2023/04/30 03:55:53;;;;;;;7.53;6.90;;;10.90;99.90;;;;;;5062488;28;20274;-81
2023/04/30 03:58:20;;;;;;;7.88;7.18;;;10.90;99.90;;;;;;5063972;28;20183;-81
2023/04/30 04:00:47;;;;;;;7.20;6.55;;;10.90;99.90;;;;;;5053119;28;20186;-80
2023/04/30 04:03:13;;;;;;;7.38;6.68;;;10.90;99.90;;;;;;5057893;28;20176;-81
2023/04/30 04:05:39;;;;;;;7.10;6.60;;;10.90;99.90;;;;;;5057746;28;20211;-80
2023/04/30 04:08:05;;;;;;;7.53;6.88;;;10.90;99.90;;;;;;5064853;28;20172;-80
2023/04/30 04:10:34;;;;;;;7.70;7.00;;;11.00;99.90;;;;;;5062706;28;20203;-80
2023/04/30 04:13:00;;;;;;;7.47;6.78;;;10.90;99.90;;;;;;5068140;28;20696;-79
2023/04/30 04:15:26;;;;;;;6.88;6.32;;;10.90;99.90;;;;;;5061229;28;20184;-80
2023/04/30 04:17:51;;;;;;;6.90;6.15;;;10.90;99.90;;;;;;5060719;28;20227;-80
2023/04/30 04:20:17;;;;;;;7.68;6.43;;;10.90;99.90;;;;;;5078610;28;20251;-81
2023/04/30 04:22:43;;;;;;;7.63;7.03;;;10.90;99.90;;;;;;5076852;28;20234;-78
2023/04/30 04:25:09;;;;;;;7.63;7.05;;;10.90;99.90;;;;;;5048527;28;20334;-79
2023/04/30 04:27:35;;;;;;;6.72;6.22;;;11.00;99.90;;;;;;5052132;28;20200;-78
2023/04/30 04:30:04;;;;;;;6.85;6.25;;;11.00;99.90;;;;;;5046899;28;20211;-81
2023/04/30 04:32:31;;;;;;;7.63;6.90;;;11.00;99.90;;;;;;5053866;28;20181;-77
2023/04/30 04:34:57;;;;;;;7.30;6.60;;;11.00;99.90;;;;;;5052572;28;20183;-79
2023/04/30 04:37:23;;;;;;;7.55;6.95;;;11.10;99.90;;;;;;5051870;28;20222;-79
2023/04/30 04:39:48;;;;;;;7.90;7.20;;;11.20;99.90;;;;;;5072602;28;20187;-79
2023/04/30 04:42:16;;;;;;;7.07;6.47;;;11.20;99.90;;;;;;5060129;28;20659;-80
2023/04/30 04:44:42;;;;;;;7.10;6.55;;;11.20;99.90;;;;;;5069472;28;20203;-80
2023/04/30 04:47:09;;;;;;;7.75;7.10;;;11.30;99.90;;;;;;5065822;28;20217;-80
2023/04/30 04:49:34;;;;;;;7.65;7.05;;;11.30;99.90;;;;;;5061663;28;20175;-80
2023/04/30 04:52:00;;;;;;;7.95;7.25;;;11.40;99.90;;;;;;5060998;28;20267;-80
2023/04/30 04:54:26;;;;;;;8.10;7.50;;;11.40;99.90;;;;;;5058632;28;20211;-81
2023/04/30 04:56:52;;;;;;;8.15;7.45;;;11.50;99.90;;;;;;5064866;28;20212;-77
2023/04/30 04:59:18;;;;;;;8.55;7.82;;;11.50;99.90;;;;;;5053534;28;20180;-78
2023/04/30 05:01:43;;;;;;;8.25;7.55;;;11.60;99.90;;;;;;5046976;28;20276;-77
2023/04/30 05:04:09;;;;;;;8.93;8.18;;;11.60;99.90;;;;;;5052259;28;20215;-78
2023/04/30 05:06:35;;;;;;;7.35;6.72;;;11.70;99.90;;;;;;5051286;28;20207;-78
2023/04/30 05:09:01;;;;;;;8.73;7.95;;;11.70;99.90;;;;;;5051313;28;20172;-78
2023/04/30 05:11:27;;;;;;;7.68;6.97;;;11.90;99.90;;;;;;5055467;28;20545;-78
2023/04/30 05:13:53;;;;;;;8.52;7.82;;;12.10;99.90;;;;;;5054380;28;20214;-80
2023/04/30 05:16:19;;;;;;;8.30;7.50;;;12.20;99.90;;;;;;5068597;28;20678;-79
2023/04/30 05:18:51;;;;;;;8.75;7.88;;;12.20;99.90;;;;;;5073075;28;20200;-80
2023/04/30 05:21:34;;;;;;;7.50;6.90;;;12.30;99.90;;;;;;5081558;28;20192;-78
2023/04/30 05:24:03;;;;;;;8.40;7.70;;;12.50;99.90;;;;;;5066119;28;20651;-80
2023/04/30 05:32:36;;;;;;;9.30;7.68;;;12.50;99.90;;;;;;5042409;28;20198;-79
2023/04/30 05:35:02;;;;;;;8.60;7.80;;;12.50;99.90;;;;;;5083027;28;20184;-79
2023/04/30 05:37:34;;;;;;;8.02;7.18;;;12.50;99.90;;;;;;5066091;28;20247;-78
2023/04/30 05:40:00;;;;;;;8.60;7.90;;;12.50;99.90;;;;;;5053181;28;20180;-78
2023/04/30 05:42:26;;;;;;;9.55;7.82;;;12.50;99.90;;;;;;5052512;28;20499;-79
2023/04/30 05:44:51;;;;;;;9.02;8.10;;;12.50;99.90;;;;;;5046861;28;20678;-77
2023/04/30 05:47:17;;;;;;;8.77;8.00;;;12.50;99.90;;;;;;5067533;28;20227;-77
2023/04/30 05:49:43;;;;;;;9.43;8.68;;;12.60;99.90;;;;;;5053597;28;20179;-78
2023/04/30 05:52:08;;;;;;;8.80;8.10;;;12.50;99.90;;;;;;5051483;28;20188;-78
2023/04/30 05:54:56;;;;;;;8.00;7.30;;;12.40;99.90;;;;;;5058636;28;20183;-81
2023/04/30 05:57:22;;;;;;;9.35;8.50;;;12.40;99.90;;;;;;5075607;28;20199;-77
2023/04/30 05:59:47;;;;;;;8.40;7.70;;;12.40;99.90;;;;;;5052834;28;20742;-76
2023/04/30 06:02:13;;;;;;;9.10;8.20;;;12.50;99.90;;;;;;5056874;28;20183;-77
2023/04/30 06:04:39;;;;;;;8.88;8.05;;;12.50;99.90;;;;;;5083462;28;20858;-77
2023/04/30 06:07:08;;;;;;;9.93;8.05;;;12.60;99.90;;;;;;5053393;28;20200;-78
2023/04/30 06:09:33;;;;;;;9.18;8.38;;;12.70;99.90;;;;;;5062623;28;20185;-78
2023/04/30 06:11:59;;;;;;;9.10;8.30;;;12.80;99.90;;;;;;5057819;28;20223;-83
2023/04/30 06:14:25;;;;;;;10.95;7.80;;;12.80;99.90;;;;;;5065349;28;20185;-77
2023/04/30 06:16:51;;;;;;;9.07;8.27;;;13.00;99.90;;;;;;5063916;28;20271;-78
2023/04/30 06:19:17;;;;;;;8.80;8.05;;;13.00;99.90;;;;;;5065260;28;20180;-81
2023/04/30 06:21:45;;;;;;;8.50;7.70;;;13.10;99.90;;;;;;5066804;28;20574;-77
2023/04/30 06:24:40;;;;;;;9.27;7.97;;;13.20;99.90;;;;;;5061209;28;20271;-78
2023/04/30 06:27:06;;;;;;;9.40;8.50;;;13.20;99.90;;;;;;5076279;28;20234;-77
2023/04/30 06:29:31;;;;;;;9.27;8.45;;;13.00;99.90;;;;;;5066606;28;20179;-79
2023/04/30 06:31:57;;;;;;;9.23;8.25;;;13.00;99.90;;;;;;5062024;28;20184;-77
2023/04/30 06:34:22;;;;;;;9.48;8.45;;;12.90;99.90;;;;;;5051847;28;20665;-78
2023/04/30 06:36:48;;;;;;;9.15;8.07;;;13.00;99.90;;;;;;5044456;28;20604;-78
2023/04/30 06:39:15;;;;;;;8.60;7.80;;;13.00;99.90;;;;;;5049063;28;20179;-78
2023/04/30 06:41:40;;;;;;;8.65;7.93;;;13.10;99.90;;;;;;5048284;28;20698;-79
2023/04/30 06:44:07;;;;;;;9.02;8.13;;;13.20;99.90;;;;;;5054484;28;20241;-79
2023/04/30 06:46:33;;;;;;;8.63;7.85;;;13.40;99.90;;;;;;5047797;28;20250;-77
2023/04/30 06:49:04;;;;;;;8.73;7.90;;;13.60;99.90;;;;;;5054230;28;20188;-79
2023/04/30 06:51:30;;;;;;;8.90;8.10;;;13.80;99.90;;;;;;5056444;28;20531;-77
2023/04/30 06:53:56;;;;;;;7.85;7.05;;;14.00;99.90;;;;;;5051346;28;20190;-76
2023/04/30 06:56:22;;;;;;;7.53;6.93;;;14.10;99.90;;;;;;5060450;28;20576;-78
2023/04/30 06:58:49;;;;;;;8.25;7.40;;;14.20;99.90;;;;;;5062523;28;20188;-78
2023/04/30 07:01:14;;;;;;;7.78;7.10;;;14.30;99.90;;;;;;5061245;28;20176;-77
2023/04/30 07:03:40;;;;;;;7.78;7.07;;;14.40;99.90;;;;;;5055765;28;20195;-77
2023/04/30 07:06:05;;;;;;;7.07;6.45;;;14.50;99.90;;;;;;5051986;28;20208;-77
2023/04/30 07:08:31;;;;;;;6.70;6.18;;;14.60;99.90;;;;;;5051752;28;20229;-78
2023/04/30 07:10:57;;;;;;;6.65;6.15;;;14.70;99.90;;;;;;5057045;28;20184;-77
2023/04/30 07:13:22;;;;;;;7.00;6.40;;;14.80;99.90;;;;;;5053582;28;20589;-77
2023/04/30 07:15:48;;;;;;;7.07;6.47;;;14.90;99.90;;;;;;5058692;28;20192;-77
2023/04/30 07:18:14;;;;;;;6.75;6.15;;;15.10;99.90;;;;;;5066581;28;20225;-75
2023/04/30 07:20:39;;;;;;;7.72;6.93;;;15.30;99.90;;;;;;5052669;28;20172;-75
2023/04/30 07:23:05;;;;;;;6.93;6.32;;;15.50;99.90;;;;;;5052396;28;20191;-74
2023/04/30 07:25:34;;;;;;;7.55;6.85;;;15.70;99.90;;;;;;5061951;28;20692;-80
2023/04/30 07:28:01;;;;;;;7.63;6.90;;;15.80;99.90;;;;;;5059088;28;20204;-77
2023/04/30 07:30:26;;;;;;;9.88;6.53;;;16.00;99.90;;;;;;5055587;28;20167;-76
2023/04/30 07:32:52;;;;;;;6.47;5.97;;;16.10;99.90;;;;;;5048823;28;20727;-76
2023/04/30 07:35:18;;;;;;;7.13;6.43;;;16.20;99.90;;;;;;5055344;28;20705;-76
2023/04/30 07:37:43;;;;;;;6.57;6.07;;;16.40;99.90;;;;;;5048590;28;20223;-75
2023/04/30 07:40:11;;;;;;;6.93;5.97;;;16.40;99.90;;;;;;5051947;28;20681;-76
2023/04/30 07:42:40;;;;;;;7.18;6.25;;;16.40;99.90;;;;;;5050502;28;20180;-78
2023/04/30 07:45:06;;;;;;;6.80;6.20;;;16.60;99.90;;;;;;5049109;28;20213;-77
2023/04/30 07:47:32;;;;;;;6.72;5.95;;;16.80;99.90;;;;;;5049937;28;20689;-77
2023/04/30 07:49:58;;;;;;;6.07;5.60;;;17.00;99.90;;;;;;5050527;28;20184;-76
2023/04/30 07:52:23;;;;;;;6.38;5.80;;;17.30;99.40;;;;;;5050004;28;20535;-76
2023/04/30 07:54:49;;;;;;;7.50;6.75;;;17.60;98.40;;;;;;5052491;28;20192;-76
2023/04/30 07:57:14;;;;;;;6.85;6.35;;;17.80;97.40;;;;;;5049527;28;20795;-76
2023/04/30 07:59:40;;;;;;;6.05;5.50;;;17.70;96.00;;;;;;5051412;28;20184;-76
2023/04/30 08:02:07;;;;;;;6.82;5.70;;;17.70;96.70;;;;;;5051468;28;20266;-77
2023/04/30 08:04:33;;;;;;;6.47;5.45;;;17.70;95.90;;;;;;5048140;28;20211;-76
2023/04/30 08:07:00;;;;;;;5.65;5.25;;;17.90;95.40;;;;;;5050274;28;20488;-77
2023/04/30 08:09:26;;;;;;;5.65;5.18;;;18.10;93.80;;;;;;5053083;28;20657;-76
2023/04/30 08:11:52;;;;;;;6.30;5.70;;;18.10;94.00;;;;;;5053318;28;20192;-76
2023/04/30 08:14:18;;;;;;;6.22;5.70;;;18.20;94.50;;;;;;5056866;28;20172;-76
2023/04/30 08:16:43;;;;;;;5.35;4.85;;;18.40;93.80;;;;;;5055461;28;20706;-77
2023/04/30 08:19:09;;;;;;;6.05;5.20;;;18.70;91.50;;;;;;5068868;28;20191;-76
2023/04/30 08:21:35;;;;;;;5.05;4.60;;;18.90;90.80;;;;;;5054938;28;20194;-77
2023/04/30 08:24:01;;;;;;;4.88;4.47;;;19.20;89.80;;;;;;5054954;28;20288;-77
2023/04/30 08:26:26;;;;;;;4.60;4.20;;;19.40;90.00;;;;;;5054574;28;20269;-78
2023/04/30 08:28:52;;;;;;;5.45;5.05;;;19.70;86.20;;;;;;5053885;28;20263;-76
2023/04/30 08:31:17;;;;;;;5.32;4.78;;;20.00;86.00;;;;;;5056114;28;20270;-76
2023/04/30 08:33:43;;;;;;;5.47;5.07;;;20.10;84.00;;;;;;5057265;28;20183;-76
2023/04/30 08:36:08;;;;;;;5.47;4.97;;;20.20;82.70;;;;;;5054232;28;20222;-77
2023/04/30 08:38:34;;;;;;;4.32;4.03;;;20.40;82.90;;;;;;5054239;28;20241;-78
2023/04/30 08:41:24;;;;;;;4.70;4.30;;;20.60;80.00;;;;;;5058952;28;20187;-76
2023/04/30 08:43:52;;;;;;;4.85;4.40;;;20.80;78.30;;;;;;5055534;28;20200;-77
2023/04/30 08:46:19;;;;;;;4.30;3.97;;;21.00;78.50;;;;;;5052697;28;20663;-77
2023/04/30 08:48:47;;;;;;;5.28;4.80;;;21.30;76.60;;;;;;5051811;28;20184;-77
2023/04/30 08:51:13;;;;;;;4.00;3.75;;;21.50;74.20;;;;;;5052379;28;20232;-76
2023/04/30 08:53:41;;;;;;;4.97;4.10;;;21.50;74.10;;;;;;5049588;28;20446;-76
2023/04/30 08:56:09;;;;;;;4.00;3.70;;;21.50;75.30;;;;;;5052992;28;20722;-77
2023/04/30 08:58:34;;;;;;;4.10;3.80;;;21.50;74.90;;;;;;5053873;28;20194;-77
2023/04/30 09:01:01;;;;;;;3.85;3.55;;;21.70;72.30;;;;;;5053968;28;20434;-76
2023/04/30 09:03:27;;;;;;;3.50;3.20;;;21.80;73.10;;;;;;5052232;28;20229;-76
2023/04/30 09:05:54;;;;;;;4.75;3.65;;;21.80;71.30;;;;;;5054513;28;20273;-77
2023/04/30 09:08:43;;;;;;;4.10;3.80;;;21.80;70.60;;;;;;5050161;28;20184;-76
2023/04/30 09:11:27;;;;;;;3.92;3.60;;;21.30;70.00;;;;;;5054727;28;20183;-76
2023/04/30 09:13:56;;;;;;;3.50;3.30;;;21.00;71.30;;;;;;5053031;28;20179;-77
2023/04/30 09:16:22;;;;;;;3.55;3.35;;;21.00;71.60;;;;;;5053514;28;20196;-77
2023/04/30 09:18:48;;;;;;;4.20;3.90;;;21.00;71.60;;;;;;5051546;28;20225;-77
2023/04/30 09:21:14;;;;;;;3.90;3.55;;;21.00;73.20;;;;;;5054672;28;20223;-76
2023/04/30 09:23:54;;;;;;;4.13;3.83;;;21.40;71.10;;;;;;5051560;28;20211;-76
2023/04/30 09:26:26;;;;;;;3.75;3.50;;;21.40;71.00;;;;;;5051436;28;20205;-77
2023/04/30 09:28:59;;;;;;;3.60;3.40;;;21.40;69.40;;;;;;5051392;28;20270;-76
2023/04/30 09:31:25;;;;;;;4.25;3.95;;;21.30;68.50;;;;;;5047832;28;20319;-76
2023/04/30 09:33:52;;;;;;;3.50;3.28;;;21.60;69.70;;;;;;5047497;28;20993;-76
2023/04/30 09:36:18;;;;;;;3.45;3.25;;;22.10;67.10;;;;;;5050504;28;20238;-76
2023/04/30 09:38:44;;;;;;;3.40;3.20;;;22.20;67.30;;;;;;5050828;28;20230;-76
2023/04/30 09:41:27;;;;;;;3.53;3.22;;;21.90;67.20;;;;;;5055079;28;20720;-76
2023/04/30 09:43:56;;;;;;;4.10;3.80;;;21.60;68.50;;;;;;5049414;28;20212;-76
2023/04/30 09:46:30;;;;;;;3.45;3.25;;;21.30;67.40;;;;;;5047261;28;20222;-76
2023/04/30 09:48:57;;;;;;;3.75;3.45;;;21.00;67.40;;;;;;5055585;28;20176;-76
2023/04/30 09:51:23;;;;;;;3.83;3.53;;;20.80;69.10;;;;;;5051196;28;20639;-77
2023/04/30 09:53:50;;;;;;;3.92;3.55;;;20.90;69.00;;;;;;5051149;28;20203;-76
2023/04/30 09:56:21;;;;;;;3.83;3.63;;;21.60;71.20;;;;;;5054524;28;20247;-76
2023/04/30 09:58:51;;;;;;;3.63;3.33;;;23.10;65.60;;;;;;5051621;28;20180;-76
2023/04/30 10:01:17;;;;;;;3.47;3.28;;;23.60;63.20;;;;;;5059509;28;20187;-76
2023/04/30 10:03:44;;;;;;;2.67;2.58;;;23.50;61.50;;;;;;5049130;28;20212;-76
2023/04/30 10:06:12;;;;;;;3.03;2.63;;;23.20;59.40;;;;;;5049500;28;20204;-76
2023/04/30 10:08:42;;;;;;;3.75;3.45;;;23.00;60.10;;;;;;5051294;28;20255;-77
2023/04/30 10:11:15;;;;;;;2.97;2.58;;;23.10;59.50;;;;;;5052779;28;20168;-77
2023/04/30 10:13:49;;;;;;;2.72;2.50;;;23.30;59.10;;;;;;5053016;28;20552;-77
2023/04/30 10:16:39;;;;;;;2.40;2.20;;;23.50;57.80;;;;;;5066051;28;20347;-77
2023/04/30 10:19:19;;;;;;;3.97;2.85;;;23.90;57.00;;;;;;5048822;28;20180;-76
2023/04/30 10:21:46;;;;;;;2.50;2.40;;;23.50;57.80;;;;;;5047046;28;20199;-77
2023/04/30 10:24:18;;;;;;;2.67;2.47;;;23.20;59.10;;;;;;5051480;28;20191;-76
2023/04/30 10:26:45;;;;;;;4.90;2.47;;;22.90;58.40;;;;;;5054377;28;20630;-76
2023/04/30 10:29:13;;;;;;;2.05;1.95;;;22.90;58.70;;;;;;5050031;28;20171;-77
2023/04/30 10:31:40;;;;;;;2.22;2.13;;;22.90;56.40;;;;;;5065797;28;20187;-77
2023/04/30 10:34:40;;;;;;;1.95;1.85;;;22.90;57.40;;;;;;5053046;28;20187;-76
2023/04/30 10:37:30;;;;;;;2.00;1.90;;;22.90;56.00;;;;;;5047207;28;20724;-76
2023/04/30 10:39:55;;;;;;;2.20;2.10;;;22.90;56.50;;;;;;5048518;28;20626;-77
2023/04/30 10:42:21;;;;;;;2.00;1.90;;;23.00;56.40;;;;;;5053172;28;20180;-77
2023/04/30 10:44:47;;;;;;;2.40;2.30;;;22.90;56.40;;;;;;5052603;28;20695;-76
2023/04/30 10:47:15;;;;;;;2.60;2.42;;;22.90;57.90;;;;;;5052444;28;20208;-77
2023/04/30 10:49:50;;;;;;;3.60;3.30;;;23.20;59.30;;;;;;5051231;28;20257;-76
2023/04/30 10:52:26;;;;;;;2.92;2.72;;;23.50;58.50;;;;;;5045941;28;20203;-76
2023/04/30 10:54:52;;;;;;;2.58;2.38;;;23.70;58.90;;;;;;5051163;28;20287;-77
2023/04/30 10:57:19;;;;;;;3.00;2.80;;;23.90;59.10;;;;;;5050121;28;20274;-76
2023/04/30 11:00:07;;;;;;;3.38;3.15;;;23.90;57.20;;;;;;5051321;28;20179;-77
2023/04/30 11:02:43;;;;;;;2.60;2.50;;;23.70;57.80;;;;;;5066242;28;20556;-77
2023/04/30 11:05:19;;;;;;;3.20;2.85;;;23.80;57.70;;;;;;5052239;28;20697;-77
2023/04/30 11:07:48;;;;;;;3.17;2.90;;;24.30;57.90;;;;;;5049371;28;20669;-74
2023/04/30 11:10:15;;;;;;;2.50;2.40;;;25.70;56.30;;;;;;5051651;28;20267;-74
2023/04/30 11:12:47;;;;;;;2.67;2.40;;;27.20;54.40;;;;;;5052145;28;20175;-74
2023/04/30 11:15:16;;;;;;;4.03;2.83;;;28.60;51.70;;;;;;5052198;28;20635;-75
2023/04/30 11:17:46;;;;;;;2.42;2.25;;;29.80;49.40;;;;;;5049532;28;20210;-74
2023/04/30 11:20:13;;;;;;;2.80;2.60;;;30.30;46.60;;;;;;5049808;28;20187;-74
2023/04/30 11:22:39;;;;;;;2.20;2.10;;;30.50;46.40;;;;;;5054080;28;20199;-74
2023/04/30 11:25:08;;;;;;;2.72;2.47;;;30.90;46.90;;;;;;5053310;28;20206;-75
2023/04/30 11:27:36;;;;;;;1.90;1.80;;;31.60;45.70;;;;;;5048433;28;20701;-74
2023/04/30 11:30:08;;;;;;;1.85;1.75;;;32.10;43.00;;;;;;5053106;28;20195;-74
2023/04/30 11:32:36;;;;;;;2.50;1.75;;;32.80;40.90;;;;;;5050012;28;20197;-74
2023/04/30 11:35:03;;;;;;;3.10;2.20;;;33.40;40.20;;;;;;5054737;28;20187;-74
2023/04/30 11:37:31;;;;;;;2.10;2.00;;;33.80;39.30;;;;;;5053488;28;20212;-74
2023/04/30 11:40:00;;;;;;;2.58;2.03;;;33.90;40.50;;;;;;5049293;28;20271;-75
2023/04/30 11:42:25;;;;;;;2.45;2.05;;;34.00;40.80;;;;;;5051129;28;20547;-74
2023/04/30 11:44:51;;;;;;;2.33;2.00;;;34.50;41.20;;;;;;5047504;28;20211;-75
2023/04/30 11:47:16;;;;;;;2.00;1.90;;;34.90;38.60;;;;;;5048223;28;20707;-74
2023/04/30 11:49:42;;;;;;;2.10;2.00;;;34.90;37.70;;;;;;5051899;28;20178;-75
2023/04/30 11:52:08;;;;;;;2.92;2.00;;;34.90;38.10;;;;;;5052124;28;20565;-75
2023/04/30 11:54:37;;;;;;;2.60;1.70;;;34.90;37.90;;;;;;5048715;28;20190;-74
2023/04/30 11:57:03;;;;;;;2.00;1.90;;;34.90;37.50;;;;;;5052723;28;20701;-75
2023/04/30 11:59:31;;;;;;;2.00;1.90;;;34.80;37.90;;;;;;5050562;28;20186;-75
2023/04/30 12:01:57;;;;;;;1.98;1.88;;;34.30;37.00;;;;;;5049265;28;20187;-75
2023/04/30 12:04:23;;;;;;;2.25;2.15;;;33.50;38.20;;;;;;5046710;28;20278;-74
2023/04/30 12:06:49;;;;;;;2.10;2.00;;;32.60;38.20;;;;;;5054426;28;20207;-76
2023/04/30 12:09:14;;;;;;;1.85;1.70;;;31.70;39.20;;;;;;5049657;28;20257;-75
2023/04/30 12:11:40;;;;;;;2.15;1.70;;;32.00;39.40;;;;;;5050257;28;20584;-75
2023/04/30 12:14:10;;;;;;;1.48;1.45;;;32.70;39.70;;;;;;5049824;28;20369;-75
2023/04/30 12:16:41;;;;;;;1.95;1.90;;;33.40;39.10;;;;;;5045967;28;20670;-76
2023/04/30 12:19:08;;;;;;;2.15;2.00;;;33.70;38.90;;;;;;5048875;28;20179;-75
2023/04/30 12:21:34;;;;;;;1.67;1.67;;;33.60;37.90;;;;;;5050072;28;20191;-75
2023/04/30 12:24:00;;;;;;;2.10;2.00;;;33.40;38.90;;;;;;5050100;28;20234;-76
2023/04/30 12:26:34;;;;;;;2.17;1.98;;;33.40;39.20;;;;;;5049078;28;20627;-77
2023/04/30 12:29:03;;;;;;;1.80;1.70;;;33.20;38.00;;;;;;5053275;28;20231;-77
2023/04/30 12:31:32;;;;;;;2.20;2.10;;;33.10;38.60;;;;;;5049298;28;20171;-77
2023/04/30 12:34:02;;;;;;;1.83;1.75;;;33.70;38.90;;;;;;5066980;28;20176;-76
2023/04/30 12:36:30;;;;;;;1.67;1.58;;;34.60;37.00;;;;;;5048105;28;20584;-76
2023/04/30 12:39:06;;;;;;;1.77;1.67;;;35.20;35.80;;;;;;5046908;28;20168;-77
2023/04/30 12:41:40;;;;;;;1.80;1.67;;;35.40;36.20;;;;;;5049189;28;20179;-77
2023/04/30 12:44:22;;;;;;;1.50;1.50;;;35.60;37.00;;;;;;5051596;28;20213;-76
2023/04/30 12:46:48;;;;;;;1.40;1.40;;;36.20;36.00;;;;;;5047217;28;20539;-76
2023/04/30 12:49:32;;;;;;;2.20;1.80;;;35.50;34.10;;;;;;5049174;28;20233;-75
2023/04/30 12:52:03;;;;;;;1.90;1.75;;;33.00;35.80;;;;;;5050076;28;20207;-76
2023/04/30 12:54:31;;;;;;;1.60;1.50;;;32.10;38.10;;;;;;5050988;28;20217;-77
2023/04/30 12:57:02;;;;;;;1.58;1.58;;;31.60;39.50;;;;;;5053728;28;20203;-76
2023/04/30 12:59:29;;;;;;;1.83;1.70;;;31.40;39.00;;;;;;5053238;28;20258;-76